createdAt,value
2022-10-23T00:02:35.000Z,8.03
2022-10-23T00:07:35.000Z,8.72
2022-10-23T00:12:35.000Z,9.04
2022-10-23T00:17:34.000Z,9.31
2022-10-23T00:22:34.000Z,9.64
2022-10-23T00:27:35.000Z,9.65
2022-10-23T00:32:35.000Z,9.85
2022-10-23T00:37:35.000Z,9.85
2022-10-23T00:42:35.000Z,10.36
2022-10-23T00:47:35.000Z,10.81
2022-10-23T00:52:35.000Z,9.93
2022-10-23T00:57:35.000Z,9.93
2022-10-23T01:02:35.000Z,11.04
2022-10-23T01:12:34.000Z,10.37
2022-10-23T01:17:34.000Z,10.32
2022-10-23T01:22:35.000Z,10.71
2022-10-23T01:27:34.000Z,9.14
2022-10-23T01:32:35.000Z,10.53
2022-10-23T01:37:34.000Z,10.63
2022-10-23T01:42:34.000Z,10.63
2022-10-23T01:47:35.000Z,10.37
2022-10-23T01:52:35.000Z,11.14
2022-10-23T01:57:35.000Z,10.9
2022-10-23T02:02:35.000Z,9.48
2022-10-23T02:07:34.000Z,10.6
2022-10-23T02:12:35.000Z,10.73
2022-10-23T02:17:34.000Z,11.6
2022-10-23T02:22:34.000Z,12.21
2022-10-23T02:27:35.000Z,11.33
2022-10-23T02:32:34.000Z,11.25
2022-10-23T02:37:34.000Z,12.01
2022-10-23T02:42:35.000Z,11.07
2022-10-23T02:47:35.000Z,12.03
2022-10-23T02:57:35.000Z,13.01
2022-10-23T03:02:36.000Z,11.66
2022-10-23T03:07:34.000Z,11.66
2022-10-23T03:12:35.000Z,12.08
2022-10-23T03:17:35.000Z,13.35
2022-10-23T03:22:35.000Z,13.87
2022-10-23T03:27:35.000Z,13.52
2022-10-23T03:32:34.000Z,13.93
2022-10-23T03:37:34.000Z,14.05
2022-10-23T03:42:34.000Z,14.11
2022-10-23T03:47:35.000Z,14.66
2022-10-23T03:52:35.000Z,14.66
2022-10-23T03:57:34.000Z,14.63
2022-10-23T04:02:35.000Z,13.77
2022-10-23T04:07:35.000Z,14.48
2022-10-23T04:17:35.000Z,16.03
2022-10-23T04:22:38.000Z,15.52
2022-10-23T04:27:35.000Z,15.52
2022-10-23T04:32:35.000Z,14.39
2022-10-23T04:37:35.000Z,14.49
2022-10-23T04:42:35.000Z,14.3
2022-10-23T04:47:34.000Z,15.15
2022-10-23T04:52:35.000Z,14.29
2022-10-23T04:57:35.000Z,13.96
2022-10-23T05:02:35.000Z,14.39
2022-10-23T05:07:34.000Z,15.16
2022-10-23T05:12:34.000Z,14.28
2022-10-23T05:17:35.000Z,14.19
2022-10-23T05:22:34.000Z,14.32
2022-10-23T05:27:34.000Z,13.92
2022-10-23T05:32:34.000Z,14.66
2022-10-23T05:37:35.000Z,14.51
2022-10-23T05:42:35.000Z,14.51
2022-10-23T05:47:35.000Z,14.15
2022-10-23T05:52:35.000Z,13.82
2022-10-23T05:57:34.000Z,12.87
2022-10-23T06:02:35.000Z,12.72
2022-10-23T06:07:34.000Z,13.62
2022-10-23T06:17:34.000Z,11.62
2022-10-23T06:22:35.000Z,12.46
2022-10-23T06:27:34.000Z,12.03
2022-10-23T06:32:35.000Z,12.09
2022-10-23T06:37:35.000Z,12.07
2022-10-23T06:42:35.000Z,12.07
2022-10-23T06:47:35.000Z,12.3
2022-10-23T06:52:56.000Z,12.28
2022-10-23T06:57:34.000Z,12.47
2022-10-23T07:02:35.000Z,12
2022-10-23T07:07:35.000Z,13.08
2022-10-23T07:12:34.000Z,13.07
2022-10-23T07:17:34.000Z,12.96
2022-10-23T07:22:34.000Z,12.53
2022-10-23T07:27:34.000Z,12.83
2022-10-23T07:32:35.000Z,12.49
2022-10-23T07:37:35.000Z,13.71
2022-10-23T07:42:35.000Z,13.37
2022-10-23T07:47:34.000Z,13.46
2022-10-23T07:52:34.000Z,13.28
2022-10-23T07:57:34.000Z,13.28
2022-10-23T08:02:34.000Z,14.82
2022-10-23T08:07:35.000Z,15.35
2022-10-23T08:12:35.000Z,15.65
2022-10-23T08:17:38.000Z,15.18
2022-10-23T08:22:35.000Z,15.13
2022-10-23T08:27:34.000Z,14.86
2022-10-23T08:32:34.000Z,15.08
2022-10-23T08:37:34.000Z,15.25
2022-10-23T08:42:34.000Z,16.53
2022-10-23T08:47:34.000Z,16.96
2022-10-23T08:52:35.000Z,17.52
2022-10-23T08:57:35.000Z,17.2
2022-10-23T09:02:35.000Z,17.26
2022-10-23T09:07:35.000Z,18.13
2022-10-23T09:12:34.000Z,18.37
2022-10-23T09:17:34.000Z,18.37
2022-10-23T09:22:34.000Z,18.88
2022-10-23T09:27:35.000Z,18.37
2022-10-23T09:32:35.000Z,18.91
2022-10-23T09:37:35.000Z,18.15
2022-10-23T09:42:35.000Z,18.37
2022-10-23T09:47:34.000Z,18.41
2022-10-23T09:52:34.000Z,16.21
2022-10-23T09:57:34.000Z,17.63
2022-10-23T10:02:34.000Z,18.59
2022-10-23T10:07:34.000Z,17.96
2022-10-23T10:12:35.000Z,19.03
2022-10-23T10:17:34.000Z,18.98
2022-10-23T10:22:34.000Z,19.49
2022-10-23T10:27:34.000Z,19.48
2022-10-23T10:32:35.000Z,19.48
2022-10-23T10:37:35.000Z,18.98
2022-10-23T10:42:34.000Z,18.08
2022-10-23T10:47:34.000Z,18.55
2022-10-23T10:52:35.000Z,18.53
2022-10-23T10:57:35.000Z,18.3
2022-10-23T11:02:35.000Z,19.09
2022-10-23T11:07:35.000Z,18.86
2022-10-23T11:12:35.000Z,19.23
2022-10-23T11:17:35.000Z,19.3
2022-10-23T11:22:34.000Z,19.11
2022-10-23T11:27:34.000Z,18.56
2022-10-23T11:32:34.000Z,18.51
2022-10-23T11:37:35.000Z,18.62
2022-10-23T11:42:35.000Z,18.32
2022-10-23T11:47:34.000Z,18.32
2022-10-23T11:52:34.000Z,18.42
2022-10-23T11:57:34.000Z,19.06
2022-10-23T12:02:35.000Z,19.14
2022-10-23T12:07:35.000Z,19.27
2022-10-23T12:12:35.000Z,19.65
2022-10-23T12:17:35.000Z,20.08
2022-10-23T12:32:35.000Z,18.73
2022-10-23T12:37:34.000Z,19.55
2022-10-23T12:42:35.000Z,19.83
2022-10-23T12:47:34.000Z,18.82
2022-10-23T12:52:35.000Z,19.35
2022-10-23T12:57:34.000Z,19.74
2022-10-23T13:02:35.000Z,20.01
2022-10-23T13:07:35.000Z,19.05
2022-10-23T13:12:35.000Z,18.74
2022-10-23T13:17:35.000Z,19.63
2022-10-23T13:22:35.000Z,19.46
2022-10-23T13:27:35.000Z,20.17
2022-10-23T13:32:35.000Z,20.17
2022-10-23T13:37:34.000Z,19.96
2022-10-23T13:42:35.000Z,20.92
2022-10-23T13:47:34.000Z,21.76
2022-10-23T13:52:35.000Z,22.08
2022-10-23T13:57:35.000Z,21.59
2022-10-23T14:02:35.000Z,21.64
2022-10-23T14:07:34.000Z,21.28
2022-10-23T14:12:35.000Z,21.37
2022-10-23T14:17:35.000Z,21.59
2022-10-23T14:22:35.000Z,20.9
2022-10-23T14:27:34.000Z,21.76
2022-10-23T14:32:34.000Z,22.46
2022-10-23T14:37:35.000Z,22.61
2022-10-23T14:42:35.000Z,22.15
2022-10-23T14:47:35.000Z,22.15
2022-10-23T14:52:34.000Z,23.26
2022-10-23T14:57:34.000Z,22.95
2022-10-23T15:02:34.000Z,22.41
2022-10-23T15:07:35.000Z,22.46
2022-10-23T15:12:34.000Z,22.47
2022-10-23T15:17:35.000Z,22.94
2022-10-23T15:22:34.000Z,24.43
2022-10-23T15:27:34.000Z,23.69
2022-10-23T15:32:34.000Z,23.56
2022-10-23T15:37:34.000Z,23.69
2022-10-23T15:42:35.000Z,23.46
2022-10-23T15:47:35.000Z,24.1
2022-10-23T15:52:34.000Z,25.52
2022-10-23T15:57:34.000Z,25.52
2022-10-23T16:02:35.000Z,25.31
2022-10-23T16:07:34.000Z,24.26
2022-10-23T16:12:35.000Z,23.8
2022-10-23T16:17:34.000Z,22.93
2022-10-23T16:22:35.000Z,23.24
2022-10-23T16:27:34.000Z,22.76
2022-10-23T16:32:34.000Z,22.61
2022-10-23T16:37:35.000Z,23.76
2022-10-23T16:42:35.000Z,23.53
2022-10-23T16:47:35.000Z,23.58
2022-10-23T16:52:35.000Z,23.64
2022-10-23T16:57:35.000Z,22.65
2022-10-23T17:02:35.000Z,22.93
2022-10-23T17:07:34.000Z,22.24
2022-10-23T17:12:35.000Z,22.24
2022-10-23T17:17:35.000Z,22.23
2022-10-23T17:22:35.000Z,22.47
2022-10-23T17:27:35.000Z,22.43
2022-10-23T17:32:35.000Z,21.43
2022-10-23T17:37:35.000Z,21.55
2022-10-23T17:42:34.000Z,21.36
2022-10-23T17:47:35.000Z,21.29
2022-10-23T17:52:35.000Z,21.15
2022-10-23T17:57:35.000Z,21.49
2022-10-23T18:02:35.000Z,21.53
2022-10-23T18:07:35.000Z,20.58
2022-10-23T18:12:35.000Z,18.09
2022-10-23T18:17:35.000Z,19.64
2022-10-23T18:22:34.000Z,18.79
2022-10-23T18:27:34.000Z,18.79
2022-10-23T18:32:35.000Z,18.66
2022-10-23T18:37:42.000Z,19.28
2022-10-23T18:42:35.000Z,19.6
2022-10-23T18:47:35.000Z,19.01
2022-10-23T18:52:34.000Z,19.04
2022-10-23T18:57:34.000Z,18.58
2022-10-23T19:02:35.000Z,18.09
2022-10-23T19:07:35.000Z,17.83
2022-10-23T19:12:35.000Z,17.61
2022-10-23T19:17:34.000Z,16.47
2022-10-23T19:22:34.000Z,16.08
2022-10-23T19:27:35.000Z,16.04
2022-10-23T19:32:35.000Z,16.61
2022-10-23T19:37:34.000Z,17.41
2022-10-23T19:42:35.000Z,17.41
2022-10-23T19:47:35.000Z,16.4
2022-10-23T19:52:35.000Z,16.74
2022-10-23T19:57:34.000Z,18.09
2022-10-23T20:07:34.000Z,18.05
2022-10-23T20:17:34.000Z,18.52
2022-10-23T20:22:35.000Z,18.96
2022-10-23T20:32:34.000Z,19.01
2022-10-23T20:37:35.000Z,17.92
2022-10-23T20:42:35.000Z,18.61
2022-10-23T20:47:35.000Z,18.61
2022-10-23T20:52:35.000Z,19.17
2022-10-23T20:57:34.000Z,19.9
2022-10-23T21:02:35.000Z,19.17
2022-10-23T21:07:34.000Z,19.56
2022-10-23T21:12:35.000Z,19.66
2022-10-23T21:17:34.000Z,19.16
2022-10-23T21:22:35.000Z,19.18
2022-10-23T21:27:35.000Z,19.49
2022-10-23T21:32:35.000Z,19.04
2022-10-23T21:37:34.000Z,19.35
2022-10-23T21:42:35.000Z,19.22
2022-10-23T21:47:34.000Z,17.67
2022-10-23T21:52:35.000Z,18.45
2022-10-23T21:57:34.000Z,17.68
2022-10-23T22:02:35.000Z,17.68
2022-10-23T22:07:34.000Z,16.99
2022-10-23T22:12:35.000Z,15.82
2022-10-23T22:17:35.000Z,13.67
2022-10-23T22:22:34.000Z,11.69
2022-10-23T22:27:35.000Z,10.66
2022-10-23T22:32:35.000Z,10.23
2022-10-23T22:37:35.000Z,9.57
2022-10-23T22:42:35.000Z,9.38
2022-10-23T22:47:35.000Z,9.56
2022-10-23T22:52:34.000Z,8.79
2022-10-23T22:57:35.000Z,9.73
2022-10-23T23:02:34.000Z,10.15
2022-10-23T23:07:35.000Z,9.52
2022-10-23T23:12:35.000Z,9.6
2022-10-23T23:17:34.000Z,10.45
2022-10-23T23:22:35.000Z,10.45
2022-10-23T23:27:35.000Z,10.52
2022-10-23T23:32:34.000Z,10.96
2022-10-23T23:37:35.000Z,10.84
2022-10-23T23:42:35.000Z,11.11
2022-10-23T23:47:34.000Z,11.01
2022-10-23T23:52:35.000Z,12.72
2022-10-23T23:57:34.000Z,11.84
